createdAt,value
2019-03-19T00:00:18.243Z,12.70
2019-03-19T00:00:56.474Z,6.83
2019-03-19T00:01:32.344Z,9.80
2019-03-19T00:02:08.305Z,8.40
2019-03-19T00:02:44.220Z,9.23
2019-03-19T00:03:20.089Z,7.63
2019-03-19T00:03:55.913Z,13.50
2019-03-19T00:04:31.810Z,8.37
2019-03-19T00:05:07.972Z,10.97
2019-03-19T00:05:43.971Z,9.83
2019-03-19T00:06:19.857Z,8.80
2019-03-19T00:06:55.742Z,13.63
2019-03-19T00:07:31.594Z,7.30
2019-03-19T00:08:07.454Z,7.77
2019-03-19T00:08:43.274Z,8.10
2019-03-19T00:09:19.154Z,10.17
2019-03-19T00:09:55.007Z,8.13
2019-03-19T00:10:30.902Z,12.00
2019-03-19T00:11:06.771Z,9.00
2019-03-19T00:11:42.628Z,7.50
2019-03-19T00:12:18.504Z,7.27
2019-03-19T00:12:54.368Z,13.37
2019-03-19T00:13:30.275Z,8.90
2019-03-19T00:14:06.150Z,9.13
2019-03-19T00:14:42.016Z,10.23
2019-03-19T00:15:18.059Z,9.77
2019-03-19T00:15:53.914Z,8.93
2019-03-19T00:16:30.027Z,11.80
2019-03-19T00:17:06.140Z,12.87
2019-03-19T00:17:42.068Z,9.10
2019-03-19T00:18:18.067Z,9.20
2019-03-19T00:18:54.200Z,14.63
2019-03-19T00:19:30.075Z,16.23
2019-03-19T00:20:06.169Z,11.83
2019-03-19T00:20:42.105Z,23.80
2019-03-19T00:21:17.956Z,6.63
2019-03-19T00:21:53.970Z,8.80
2019-03-19T00:22:29.851Z,7.00
2019-03-19T00:23:05.860Z,10.50
2019-03-19T00:23:41.867Z,7.67
2019-03-19T00:24:17.875Z,11.93
2019-03-19T00:24:53.908Z,12.63
2019-03-19T00:25:30.661Z,8.80
2019-03-19T00:26:06.650Z,11.27
2019-03-19T00:26:42.582Z,27.33
2019-03-19T00:27:18.458Z,7.17
2019-03-19T00:27:54.433Z,6.77
2019-03-19T00:28:30.331Z,11.70
2019-03-19T00:29:06.205Z,8.30
2019-03-19T00:29:42.056Z,11.60
2019-03-19T00:30:18.063Z,8.67
2019-03-19T00:30:53.959Z,9.33
2019-03-19T00:31:29.840Z,8.43
2019-03-19T00:32:05.723Z,13.10
2019-03-19T00:32:41.762Z,10.27
2019-03-19T00:33:17.649Z,10.70
2019-03-19T00:33:53.487Z,11.17
2019-03-19T00:34:29.331Z,12.30
2019-03-19T00:35:05.371Z,9.43
2019-03-19T00:35:41.304Z,10.70
2019-03-19T00:36:17.642Z,11.37
2019-03-19T00:36:53.662Z,14.80
2019-03-19T00:37:29.650Z,9.93
2019-03-19T00:38:05.602Z,10.47
2019-03-19T00:38:41.508Z,8.90
2019-03-19T00:39:17.456Z,9.90
2019-03-19T00:39:53.469Z,8.50
2019-03-19T00:40:29.330Z,8.90
2019-03-19T00:41:05.392Z,12.90
2019-03-19T00:41:41.243Z,14.57
2019-03-19T00:42:17.129Z,12.80
2019-03-19T00:42:52.986Z,8.53
2019-03-19T00:43:28.842Z,11.47
2019-03-19T00:44:04.691Z,10.43
2019-03-19T00:44:40.544Z,11.20
2019-03-19T00:45:16.388Z,9.20
2019-03-19T00:45:52.246Z,23.57
2019-03-19T00:46:28.245Z,17.90
2019-03-19T00:47:04.078Z,13.50
2019-03-19T00:47:39.965Z,12.43
2019-03-19T00:48:15.838Z,13.87
2019-03-19T00:48:51.866Z,7.97
2019-03-19T00:49:27.722Z,12.97
2019-03-19T00:50:03.593Z,9.53
2019-03-19T00:50:39.434Z,11.10
2019-03-19T00:51:15.439Z,11.40
2019-03-19T00:51:51.383Z,12.33
2019-03-19T00:52:27.273Z,16.93
2019-03-19T00:53:03.211Z,11.30
2019-03-19T00:53:39.082Z,11.40
2019-03-19T00:54:14.974Z,8.73
2019-03-19T00:54:50.955Z,17.63
2019-03-19T00:55:26.838Z,10.93
2019-03-19T00:56:02.652Z,11.57
2019-03-19T00:56:38.485Z,21.50
2019-03-19T00:57:14.506Z,11.20
2019-03-19T00:57:50.358Z,10.60
2019-03-19T00:58:26.221Z,16.93
2019-03-19T00:59:02.134Z,11.43
2019-03-19T00:59:38.080Z,11.40
2019-03-19T01:00:14.339Z,20.63
2019-03-19T01:00:50.229Z,14.77
2019-03-19T01:01:26.095Z,23.77
2019-03-19T01:02:01.991Z,20.40
2019-03-19T01:02:37.888Z,33.60
2019-03-19T01:03:13.751Z,31.83
2019-03-19T01:03:49.718Z,34.27
2019-03-19T01:04:25.716Z,40.97
2019-03-19T01:05:01.600Z,52.37
2019-03-19T01:05:37.422Z,44.07
2019-03-19T01:06:13.285Z,46.53
2019-03-19T01:06:49.137Z,39.13
2019-03-19T01:07:25.009Z,26.47
2019-03-19T01:08:01.284Z,43.97
2019-03-19T01:08:37.128Z,27.30
2019-03-19T01:09:13.002Z,36.77
2019-03-19T01:09:48.894Z,28.70
2019-03-19T01:10:24.756Z,25.53
2019-03-19T01:11:00.600Z,30.47
2019-03-19T01:11:36.482Z,23.50
2019-03-19T01:12:12.475Z,22.53
2019-03-19T01:12:48.348Z,33.50
2019-03-19T01:13:24.252Z,35.67
2019-03-19T01:14:00.161Z,27.40
2019-03-19T01:14:36.169Z,26.90
2019-03-19T01:15:12.713Z,30.47
2019-03-19T01:15:48.562Z,41.70
2019-03-19T01:16:24.467Z,31.70
2019-03-19T01:17:00.412Z,25.83
2019-03-19T01:17:36.474Z,25.43
2019-03-19T01:18:12.358Z,24.57
2019-03-19T01:18:48.257Z,28.60
2019-03-19T01:19:24.086Z,24.73
2019-03-19T01:20:00.107Z,19.80
2019-03-19T01:20:36.063Z,16.30
2019-03-19T01:21:12.107Z,19.03
2019-03-19T01:21:47.994Z,18.30
2019-03-19T01:22:23.831Z,18.57
2019-03-19T01:22:59.744Z,23.53
2019-03-19T01:23:35.677Z,16.30
2019-03-19T01:24:11.721Z,17.00
2019-03-19T01:24:47.583Z,19.97
2019-03-19T01:25:23.565Z,15.13
2019-03-19T01:25:59.442Z,14.57
2019-03-19T01:26:35.295Z,18.23
2019-03-19T01:27:11.153Z,14.80
2019-03-19T01:27:47.197Z,11.70
2019-03-19T01:28:23.054Z,12.23
2019-03-19T01:28:58.941Z,16.40
2019-03-19T01:29:34.791Z,15.13
2019-03-19T01:30:11.569Z,18.00
2019-03-19T01:30:47.426Z,14.80
2019-03-19T01:31:23.316Z,16.60
2019-03-19T01:31:59.172Z,19.10
2019-03-19T01:32:35.067Z,23.50
2019-03-19T01:33:11.040Z,15.17
2019-03-19T01:33:46.900Z,13.73
2019-03-19T01:34:22.743Z,12.13
2019-03-19T01:34:58.607Z,16.30
2019-03-19T01:35:34.469Z,10.93
2019-03-19T01:36:10.344Z,12.10
2019-03-19T01:36:46.271Z,11.40
2019-03-19T01:37:22.108Z,10.93
2019-03-19T01:37:57.985Z,15.80
2019-03-19T01:38:33.820Z,15.37
2019-03-19T01:39:09.805Z,15.60
2019-03-19T01:39:45.638Z,15.80
2019-03-19T01:40:21.487Z,14.43
2019-03-19T01:40:57.355Z,11.80
2019-03-19T01:41:33.228Z,17.33
2019-03-19T01:42:09.168Z,12.50
2019-03-19T01:42:45.117Z,20.50
2019-03-19T01:43:21.046Z,13.37
2019-03-19T01:43:56.949Z,20.67
2019-03-19T01:44:32.794Z,20.00
2019-03-19T01:45:08.940Z,21.67
2019-03-19T01:45:44.830Z,11.70
2019-03-19T01:46:20.669Z,14.80
2019-03-19T01:46:56.650Z,12.17
2019-03-19T01:47:32.586Z,15.10
2019-03-19T01:48:08.551Z,13.97
2019-03-19T01:48:44.415Z,16.07
2019-03-19T01:49:20.295Z,11.50
2019-03-19T01:49:56.170Z,12.77
2019-03-19T01:50:32.038Z,10.37
2019-03-19T01:51:07.885Z,19.57
2019-03-19T01:51:43.731Z,19.73
2019-03-19T01:52:19.582Z,14.87
2019-03-19T01:52:55.446Z,12.43
2019-03-19T01:53:31.302Z,12.00
2019-03-19T01:54:07.246Z,22.63
2019-03-19T01:54:43.182Z,12.30
2019-03-19T01:55:19.103Z,20.57
2019-03-19T01:56:04.811Z,12.47
2019-03-19T01:56:32.716Z,15.17
2019-03-19T01:57:08.550Z,20.03
2019-03-19T01:57:44.406Z,14.87
2019-03-19T01:58:20.288Z,32.50
2019-03-19T01:58:56.295Z,13.40
2019-03-19T01:59:32.178Z,15.30
2019-03-19T02:00:08.950Z,13.73
2019-03-19T02:00:44.814Z,16.80
2019-03-19T02:01:20.707Z,23.43
2019-03-19T02:01:56.645Z,24.53
2019-03-19T02:02:32.612Z,16.30
2019-03-19T02:03:08.594Z,14.73
2019-03-19T02:03:44.474Z,15.23
2019-03-19T02:04:20.455Z,16.20
2019-03-19T02:04:56.463Z,14.63
2019-03-19T02:05:32.317Z,17.83
2019-03-19T02:06:08.148Z,24.53
2019-03-19T02:06:44.050Z,20.37
2019-03-19T02:07:20.016Z,15.83
2019-03-19T02:07:56.002Z,15.27
2019-03-19T02:08:32.050Z,19.40
2019-03-19T02:09:10.014Z,18.53
2019-03-19T02:09:45.921Z,19.40
2019-03-19T02:10:21.792Z,13.93
2019-03-19T02:10:57.719Z,14.80
2019-03-19T02:11:33.635Z,20.20
2019-03-19T02:12:09.493Z,15.63
2019-03-19T02:12:45.346Z,16.20
2019-03-19T02:13:21.261Z,18.40
2019-03-19T02:13:57.098Z,16.77
2019-03-19T02:14:33.041Z,14.87
2019-03-19T02:15:09.690Z,14.97
2019-03-19T02:15:45.731Z,13.93
2019-03-19T02:16:21.648Z,18.77
2019-03-19T02:16:57.498Z,18.70
2019-03-19T02:17:33.377Z,16.80
2019-03-19T02:18:09.261Z,28.63
2019-03-19T02:18:45.258Z,34.93
2019-03-19T02:19:21.140Z,17.40
2019-03-19T02:19:57.150Z,31.97
2019-03-19T02:20:33.362Z,17.83
2019-03-19T02:21:09.240Z,15.73
2019-03-19T02:21:45.092Z,17.73
2019-03-19T02:22:20.914Z,21.13
2019-03-19T02:22:56.738Z,25.60
2019-03-19T02:23:32.710Z,25.70
2019-03-19T02:24:08.711Z,14.33
2019-03-19T02:24:44.587Z,26.40
2019-03-19T02:25:20.439Z,17.10
2019-03-19T02:25:56.360Z,15.83
2019-03-19T02:26:32.201Z,42.80
2019-03-19T02:27:08.047Z,21.13
2019-03-19T02:27:44.068Z,22.47
2019-03-19T02:28:19.973Z,16.70
2019-03-19T02:28:55.861Z,18.67
2019-03-19T02:29:31.814Z,19.27
2019-03-19T02:30:08.459Z,18.97
2019-03-19T02:30:44.448Z,24.67
2019-03-19T02:31:20.323Z,22.00
2019-03-19T02:31:56.207Z,22.83
2019-03-19T02:32:32.048Z,19.77
2019-03-19T02:33:07.966Z,23.47
2019-03-19T02:33:43.819Z,20.20
2019-03-19T02:34:19.833Z,15.57
2019-03-19T02:34:55.699Z,17.77
2019-03-19T02:35:31.606Z,15.63
2019-03-19T02:36:07.495Z,26.00
2019-03-19T02:36:43.321Z,17.53
2019-03-19T02:37:19.174Z,19.67
2019-03-19T02:37:55.157Z,19.60
2019-03-19T02:38:31.054Z,16.43
2019-03-19T02:39:08.332Z,17.73
2019-03-19T02:39:44.216Z,24.63
2019-03-19T02:40:20.097Z,18.70
2019-03-19T02:40:56.118Z,17.60
2019-03-19T02:41:32.106Z,20.43
2019-03-19T02:42:08.028Z,28.03
2019-03-19T02:42:43.884Z,23.60
2019-03-19T02:43:22.636Z,17.00
2019-03-19T02:43:57.461Z,32.10
2019-03-19T02:44:33.274Z,22.40
2019-03-19T02:45:09.602Z,35.03
2019-03-19T02:45:45.559Z,23.50
2019-03-19T02:46:21.470Z,16.93
2019-03-19T02:46:57.401Z,18.53
2019-03-19T02:47:33.381Z,14.67
2019-03-19T02:48:09.243Z,21.70
2019-03-19T02:48:45.202Z,20.17
2019-03-19T02:49:21.188Z,26.53
2019-03-19T02:49:57.085Z,21.37
2019-03-19T02:50:33.000Z,19.10
2019-03-19T02:51:09.018Z,15.77
2019-03-19T02:51:44.998Z,22.67
2019-03-19T02:52:20.872Z,16.50
2019-03-19T02:52:56.689Z,19.77
2019-03-19T02:53:32.541Z,19.67
2019-03-19T02:54:08.360Z,15.10
2019-03-19T02:54:44.383Z,21.27
2019-03-19T02:55:20.254Z,18.93
2019-03-19T02:55:56.089Z,17.97
2019-03-19T02:56:33.552Z,18.83
2019-03-19T02:57:09.564Z,21.23
2019-03-19T02:57:45.439Z,22.40
2019-03-19T02:58:21.314Z,21.90
2019-03-19T02:58:57.174Z,16.83
2019-03-19T02:59:33.080Z,18.63
2019-03-19T03:00:09.540Z,14.70
2019-03-19T03:00:45.543Z,17.10
2019-03-19T03:01:21.408Z,18.23
2019-03-19T03:01:57.308Z,21.47
2019-03-19T03:02:33.175Z,19.00
2019-03-19T03:03:09.083Z,21.23
2019-03-19T03:03:44.925Z,21.90
2019-03-19T03:04:20.786Z,17.40
2019-03-19T03:04:56.668Z,18.63
2019-03-19T03:05:32.532Z,15.73
2019-03-19T03:06:08.531Z,21.00
2019-03-19T03:06:44.384Z,19.13
2019-03-19T03:07:20.280Z,19.87
2019-03-19T03:07:56.143Z,20.47
2019-03-19T03:08:31.972Z,15.90
2019-03-19T03:09:08.941Z,19.03
2019-03-19T03:09:44.854Z,15.30
2019-03-19T03:10:20.736Z,19.30
2019-03-19T03:10:56.615Z,17.50
2019-03-19T03:11:32.550Z,14.43
2019-03-19T03:12:08.440Z,19.80
2019-03-19T03:12:44.275Z,16.53
2019-03-19T03:13:20.145Z,15.93
2019-03-19T03:13:56.043Z,17.57
2019-03-19T03:14:31.933Z,14.03
2019-03-19T03:15:08.213Z,12.50
2019-03-19T03:15:44.001Z,13.43
2019-03-19T03:16:19.836Z,20.43
2019-03-19T03:16:55.741Z,18.40
2019-03-19T03:17:31.626Z,23.30
2019-03-19T03:18:07.593Z,17.83
2019-03-19T03:18:43.422Z,14.33
2019-03-19T03:19:19.274Z,17.50
2019-03-19T03:19:55.099Z,13.93
2019-03-19T03:20:30.944Z,18.20
2019-03-19T03:21:06.840Z,20.83
2019-03-19T03:21:42.765Z,27.63
2019-03-19T03:22:18.635Z,16.00
2019-03-19T03:22:54.536Z,13.70
2019-03-19T03:23:30.393Z,17.87
2019-03-19T03:24:06.273Z,16.43
2019-03-19T03:24:42.208Z,23.77
2019-03-19T03:25:18.183Z,16.80
2019-03-19T03:25:54.042Z,21.27
2019-03-19T03:26:30.006Z,16.53
2019-03-19T03:27:05.861Z,20.37
2019-03-19T03:27:41.881Z,19.60
2019-03-19T03:28:17.821Z,18.97
2019-03-19T03:28:53.768Z,21.97
2019-03-19T03:29:29.705Z,21.07
2019-03-19T03:30:06.069Z,13.73
2019-03-19T03:30:42.135Z,23.30
2019-03-19T03:31:18.125Z,13.93
2019-03-19T03:31:54.195Z,14.10
2019-03-19T03:32:30.100Z,21.03
2019-03-19T03:33:06.253Z,25.47
2019-03-19T03:33:42.111Z,18.57
2019-03-19T03:34:17.973Z,15.87
2019-03-19T03:34:53.861Z,18.20
2019-03-19T03:35:29.730Z,21.17
2019-03-19T03:36:05.692Z,17.50
2019-03-19T03:36:41.602Z,21.30
2019-03-19T03:37:17.461Z,13.13
2019-03-19T03:37:53.558Z,15.90
2019-03-19T03:38:29.573Z,19.87
2019-03-19T03:39:07.117Z,19.80
2019-03-19T03:39:42.969Z,19.10
2019-03-19T03:40:19.047Z,14.67
2019-03-19T03:40:54.886Z,15.57
2019-03-19T03:41:30.761Z,23.53
2019-03-19T03:42:06.760Z,13.23
2019-03-19T03:42:43.530Z,15.57
2019-03-19T03:43:19.642Z,13.40
2019-03-19T03:43:55.615Z,19.37
2019-03-19T03:44:31.652Z,13.90
2019-03-19T03:45:08.048Z,17.90
2019-03-19T03:45:43.967Z,13.40
2019-03-19T03:46:19.854Z,18.50
2019-03-19T03:46:55.883Z,19.80
2019-03-19T03:47:31.718Z,14.43
2019-03-19T03:48:07.736Z,20.07
2019-03-19T03:48:43.656Z,17.10
2019-03-19T03:49:19.646Z,16.20
2019-03-19T03:49:55.490Z,14.80
2019-03-19T03:50:31.415Z,12.77
2019-03-19T03:51:07.299Z,18.23
2019-03-19T03:51:43.177Z,13.73
2019-03-19T03:52:19.086Z,17.20
2019-03-19T03:52:54.965Z,14.90
2019-03-19T03:53:30.853Z,12.77
2019-03-19T03:54:06.693Z,25.20
2019-03-19T03:54:42.598Z,16.03
2019-03-19T03:55:18.441Z,12.13
2019-03-19T03:55:54.537Z,13.03
2019-03-19T03:56:30.458Z,17.57
2019-03-19T03:57:06.333Z,12.20
2019-03-19T03:57:42.305Z,11.07
2019-03-19T03:58:18.148Z,15.73
2019-03-19T03:59:00.577Z,16.20
2019-03-19T03:59:31.734Z,11.93
2019-03-19T04:00:09.560Z,26.17
2019-03-19T04:00:45.443Z,11.87
2019-03-19T04:01:21.529Z,9.83
2019-03-19T04:01:57.384Z,9.10
2019-03-19T04:02:33.272Z,14.90
2019-03-19T04:03:09.194Z,16.77
2019-03-19T04:03:45.046Z,12.83
2019-03-19T04:04:20.888Z,15.80
2019-03-19T04:04:56.794Z,10.93
2019-03-19T04:05:32.634Z,12.57
2019-03-19T04:06:08.503Z,9.43
2019-03-19T04:06:44.360Z,8.90
2019-03-19T04:07:20.372Z,10.57
2019-03-19T04:07:56.233Z,10.90
2019-03-19T04:08:32.192Z,13.10
2019-03-19T04:09:09.553Z,14.10
2019-03-19T04:09:45.594Z,12.23
2019-03-19T04:10:21.477Z,11.17
2019-03-19T04:10:57.350Z,14.43
2019-03-19T04:11:33.337Z,14.53
2019-03-19T04:12:09.181Z,15.50
2019-03-19T04:12:45.132Z,15.83
2019-03-19T04:13:21.085Z,11.50
2019-03-19T04:13:56.968Z,10.77
2019-03-19T04:14:32.817Z,17.50
2019-03-19T04:15:09.332Z,14.00
2019-03-19T04:15:45.320Z,13.17
2019-03-19T04:16:21.178Z,10.20
2019-03-19T04:16:57.071Z,9.43
2019-03-19T04:17:33.002Z,14.10
2019-03-19T04:18:08.865Z,19.03
2019-03-19T04:18:44.747Z,8.60
2019-03-19T04:19:20.627Z,13.10
2019-03-19T04:19:56.539Z,10.93
2019-03-19T04:20:32.435Z,9.63
2019-03-19T04:21:08.366Z,14.40
2019-03-19T04:21:44.269Z,12.43
2019-03-19T04:22:20.131Z,9.73
2019-03-19T04:22:56.092Z,23.53
2019-03-19T04:23:31.950Z,9.80
2019-03-19T04:24:07.810Z,13.97
2019-03-19T04:24:43.649Z,12.33
2019-03-19T04:25:19.660Z,10.27
2019-03-19T04:25:55.570Z,9.90
2019-03-19T04:26:31.571Z,16.80
2019-03-19T04:27:16.042Z,10.80
2019-03-19T04:27:45.198Z,9.90
2019-03-19T04:28:21.181Z,15.50
2019-03-19T04:28:57.038Z,14.80
2019-03-19T04:29:33.047Z,10.47
2019-03-19T04:30:09.644Z,9.20
2019-03-19T04:30:45.531Z,8.90
2019-03-19T04:31:21.426Z,8.80
2019-03-19T04:31:57.486Z,9.70
2019-03-19T04:32:33.313Z,12.03
2019-03-19T04:33:09.279Z,8.30
2019-03-19T04:33:45.213Z,14.13
2019-03-19T04:34:21.095Z,12.03
2019-03-19T04:34:57.058Z,9.97
2019-03-19T04:35:32.938Z,12.73
2019-03-19T04:36:08.828Z,17.20
2019-03-19T04:36:44.735Z,9.40
2019-03-19T04:37:20.642Z,10.87
2019-03-19T04:37:56.579Z,9.17
2019-03-19T04:38:32.501Z,13.13
2019-03-19T04:39:09.753Z,16.90
2019-03-19T04:39:45.633Z,11.30
2019-03-19T04:40:21.491Z,8.87
2019-03-19T04:40:57.335Z,9.20
2019-03-19T04:41:33.175Z,9.17
2019-03-19T04:42:09.096Z,7.90
2019-03-19T04:42:45.159Z,18.30
2019-03-19T04:43:21.177Z,10.83
2019-03-19T04:43:57.002Z,16.90
2019-03-19T04:44:32.847Z,17.53
2019-03-19T04:45:09.528Z,11.33
2019-03-19T04:45:45.430Z,13.33
2019-03-19T04:46:21.306Z,10.70
2019-03-19T04:46:57.218Z,8.97
2019-03-19T04:47:33.202Z,8.23
2019-03-19T04:48:09.068Z,7.90
2019-03-19T04:48:44.986Z,8.60
2019-03-19T04:49:20.829Z,16.07
2019-03-19T04:49:56.682Z,9.07
2019-03-19T04:50:32.524Z,10.13
2019-03-19T04:51:08.404Z,12.83
2019-03-19T04:51:44.262Z,12.23
2019-03-19T04:52:20.070Z,12.60
2019-03-19T04:52:56.025Z,12.47
2019-03-19T04:53:31.949Z,8.33
2019-03-19T04:54:07.892Z,10.27
2019-03-19T04:54:43.783Z,19.40
2019-03-19T04:55:19.675Z,9.00
2019-03-19T04:55:55.531Z,9.10
2019-03-19T04:56:31.360Z,10.80
2019-03-19T04:57:07.357Z,11.33
2019-03-19T04:57:43.288Z,10.13
2019-03-19T04:58:19.290Z,12.23
2019-03-19T04:58:55.285Z,15.20
2019-03-19T04:59:31.199Z,10.60
2019-03-19T05:00:07.376Z,11.47
2019-03-19T05:00:43.279Z,12.97
2019-03-19T05:01:19.121Z,10.53
2019-03-19T05:01:55.031Z,9.97
2019-03-19T05:02:30.996Z,12.57
2019-03-19T05:03:06.990Z,13.40
2019-03-19T05:03:42.834Z,10.80
2019-03-19T05:04:18.708Z,13.60
2019-03-19T05:04:54.612Z,10.70
2019-03-19T05:05:30.588Z,9.97
2019-03-19T05:06:06.593Z,8.30
2019-03-19T05:06:42.498Z,11.90
2019-03-19T05:07:18.340Z,9.40
2019-03-19T05:07:54.228Z,10.50
2019-03-19T05:08:30.263Z,11.73
2019-03-19T05:09:08.548Z,12.77
2019-03-19T05:09:44.456Z,10.70
2019-03-19T05:10:20.350Z,10.67
2019-03-19T05:10:56.352Z,10.47
2019-03-19T05:11:32.330Z,9.80
2019-03-19T05:12:08.235Z,8.87
2019-03-19T05:12:44.399Z,9.10
2019-03-19T05:13:20.280Z,12.67
2019-03-19T05:13:56.134Z,12.60
2019-03-19T05:14:32.234Z,10.53
2019-03-19T05:15:08.245Z,11.17
2019-03-19T05:15:44.142Z,13.80
2019-03-19T05:16:20.005Z,11.17
2019-03-19T05:16:56.002Z,11.97
2019-03-19T05:17:32.025Z,14.40
2019-03-19T05:18:07.905Z,12.67
2019-03-19T05:18:43.762Z,17.70
2019-03-19T05:19:19.811Z,11.57
2019-03-19T05:19:55.688Z,15.10
2019-03-19T05:20:31.558Z,15.60
2019-03-19T05:21:07.412Z,12.10
2019-03-19T05:21:43.244Z,16.17
2019-03-19T05:22:19.090Z,18.17
2019-03-19T05:22:54.945Z,11.57
2019-03-19T05:23:30.779Z,10.63
2019-03-19T05:24:06.717Z,10.30
2019-03-19T05:24:42.678Z,15.73
2019-03-19T05:25:18.540Z,11.77
2019-03-19T05:25:54.507Z,13.17
2019-03-19T05:26:30.517Z,11.37
2019-03-19T05:27:06.521Z,12.60
2019-03-19T05:27:42.444Z,10.53
2019-03-19T05:28:18.324Z,11.00
2019-03-19T05:28:54.219Z,9.13
2019-03-19T05:29:30.077Z,10.87
2019-03-19T05:30:06.697Z,9.43
2019-03-19T05:30:42.539Z,18.37
2019-03-19T05:31:18.522Z,14.00
2019-03-19T05:31:54.424Z,13.60
2019-03-19T05:32:30.282Z,14.60
2019-03-19T05:33:06.151Z,9.77
2019-03-19T05:33:42.007Z,12.40
2019-03-19T05:34:17.925Z,11.87
2019-03-19T05:34:53.783Z,11.20
2019-03-19T05:35:29.655Z,11.33
2019-03-19T05:36:05.581Z,10.07
2019-03-19T05:36:41.439Z,15.00
2019-03-19T05:37:17.360Z,13.23
2019-03-19T05:37:53.268Z,11.60
2019-03-19T05:38:29.125Z,9.63
2019-03-19T05:39:05.542Z,12.90
2019-03-19T05:39:41.414Z,8.90
2019-03-19T05:40:17.508Z,17.20
2019-03-19T05:40:53.371Z,18.47
2019-03-19T05:41:29.246Z,11.60
2019-03-19T05:42:05.085Z,12.63
2019-03-19T05:42:41.057Z,14.30
2019-03-19T05:43:16.977Z,12.57
2019-03-19T05:43:52.941Z,10.37
2019-03-19T05:44:28.810Z,9.10
2019-03-19T05:45:04.789Z,13.13
2019-03-19T05:45:40.699Z,14.50
2019-03-19T05:46:16.595Z,10.53
2019-03-19T05:46:52.508Z,17.03
2019-03-19T05:47:36.712Z,10.57
2019-03-19T05:48:06.216Z,9.13
2019-03-19T05:48:42.071Z,11.80
2019-03-19T05:49:17.920Z,16.87
2019-03-19T05:49:53.795Z,13.00
2019-03-19T05:50:29.703Z,12.97
2019-03-19T05:51:05.551Z,10.03
2019-03-19T05:51:41.380Z,19.53
2019-03-19T05:52:17.219Z,11.90
2019-03-19T05:52:53.091Z,20.13
2019-03-19T05:53:28.944Z,12.07
2019-03-19T05:54:05.086Z,10.70
2019-03-19T05:54:41.003Z,11.50
2019-03-19T05:55:16.877Z,14.17
2019-03-19T05:55:52.775Z,13.70
2019-03-19T05:56:28.718Z,13.50
2019-03-19T05:57:04.732Z,20.00
2019-03-19T05:57:48.985Z,15.53
2019-03-19T05:58:18.476Z,13.87
2019-03-19T05:58:54.312Z,10.90
2019-03-19T05:59:30.178Z,11.87
2019-03-19T06:00:07.188Z,12.10
2019-03-19T06:00:43.250Z,15.40
2019-03-19T06:01:19.095Z,13.07
2019-03-19T06:01:55.107Z,10.70
2019-03-19T06:02:31.044Z,24.03
2019-03-19T06:03:06.970Z,12.50
2019-03-19T06:03:42.840Z,11.53
2019-03-19T06:04:18.733Z,14.87
2019-03-19T06:04:54.699Z,20.30
2019-03-19T06:05:30.689Z,14.17
2019-03-19T06:06:06.687Z,11.97
2019-03-19T06:06:42.643Z,15.57
2019-03-19T06:07:18.545Z,12.63
2019-03-19T06:07:54.363Z,15.27
2019-03-19T06:08:30.241Z,14.00
2019-03-19T06:09:08.195Z,15.30
2019-03-19T06:09:44.198Z,11.17
2019-03-19T06:10:20.086Z,12.27
2019-03-19T06:10:55.939Z,12.70
2019-03-19T06:11:31.992Z,20.03
2019-03-19T06:12:07.855Z,16.57
2019-03-19T06:12:43.834Z,13.13
2019-03-19T06:13:19.711Z,11.00
2019-03-19T06:13:55.577Z,11.27
2019-03-19T06:14:31.604Z,14.60
2019-03-19T06:15:08.086Z,11.10
2019-03-19T06:15:44.012Z,19.90
2019-03-19T06:16:19.963Z,10.13
2019-03-19T06:16:55.849Z,12.10
2019-03-19T06:17:31.737Z,11.80
2019-03-19T06:18:07.639Z,18.40
2019-03-19T06:18:43.577Z,11.20
2019-03-19T06:19:19.447Z,13.40
2019-03-19T06:19:55.359Z,11.53
2019-03-19T06:20:31.225Z,13.50
2019-03-19T06:21:07.174Z,13.20
2019-03-19T06:21:43.103Z,12.67
2019-03-19T06:22:18.960Z,15.00
2019-03-19T06:22:54.830Z,9.67
2019-03-19T06:23:30.682Z,12.47
2019-03-19T06:24:06.515Z,10.47
2019-03-19T06:24:42.350Z,12.43
2019-03-19T06:25:18.247Z,18.83
2019-03-19T06:25:54.249Z,12.90
2019-03-19T06:26:30.087Z,18.03
2019-03-19T06:27:06.119Z,15.77
2019-03-19T06:27:42.022Z,15.50
2019-03-19T06:28:20.563Z,20.30
2019-03-19T06:28:56.400Z,14.43
2019-03-19T06:29:32.288Z,25.33
2019-03-19T06:30:09.958Z,12.37
2019-03-19T06:30:46.243Z,14.23
2019-03-19T06:31:22.097Z,20.23
2019-03-19T06:31:58.067Z,12.17
2019-03-19T06:32:34.021Z,12.47
2019-03-19T06:33:10.339Z,11.00
2019-03-19T06:33:48.124Z,11.20
2019-03-19T06:34:23.863Z,10.67
2019-03-19T06:34:59.796Z,11.93
2019-03-19T06:35:35.771Z,12.27
2019-03-19T06:36:11.688Z,11.80
2019-03-19T06:36:47.525Z,12.23
2019-03-19T06:37:23.471Z,11.43
2019-03-19T06:37:59.310Z,18.10
2019-03-19T06:38:35.179Z,14.93
2019-03-19T06:39:11.349Z,12.23
2019-03-19T06:39:47.332Z,11.30
2019-03-19T06:40:23.280Z,12.27
2019-03-19T06:40:59.156Z,9.73
2019-03-19T06:41:35.577Z,9.80
2019-03-19T06:42:11.493Z,14.40
2019-03-19T06:42:47.446Z,10.57
2019-03-19T06:43:23.318Z,14.80
2019-03-19T06:43:59.237Z,17.07
2019-03-19T06:44:35.089Z,11.63
2019-03-19T06:45:12.370Z,14.37
2019-03-19T06:45:48.193Z,12.57
2019-03-19T06:46:24.060Z,10.97
2019-03-19T06:47:00.004Z,10.67
2019-03-19T06:47:35.826Z,14.37
2019-03-19T06:48:11.782Z,11.17
2019-03-19T06:48:47.743Z,14.57
2019-03-19T06:49:23.639Z,15.53
2019-03-19T06:49:59.495Z,10.83
2019-03-19T06:50:44.674Z,10.97
2019-03-19T06:51:13.130Z,16.40
2019-03-19T06:51:48.965Z,12.53
2019-03-19T06:52:24.833Z,12.33
2019-03-19T06:53:00.718Z,14.23
2019-03-19T06:53:36.687Z,20.00
2019-03-19T06:54:12.972Z,13.33
2019-03-19T06:54:48.871Z,12.90
2019-03-19T06:55:24.951Z,20.80
2019-03-19T06:56:00.821Z,24.90
2019-03-19T06:56:36.688Z,12.60
2019-03-19T06:57:12.588Z,12.30
2019-03-19T06:57:48.583Z,10.83
2019-03-19T06:58:24.563Z,12.97
2019-03-19T06:59:00.442Z,12.60
2019-03-19T06:59:36.318Z,16.93
2019-03-19T07:00:15.294Z,10.67
2019-03-19T07:00:51.684Z,11.97
2019-03-19T07:01:27.514Z,10.63
2019-03-19T07:02:03.432Z,14.60
2019-03-19T07:02:39.301Z,11.10
2019-03-19T07:03:15.242Z,16.63
2019-03-19T07:03:51.455Z,11.00
2019-03-19T07:04:27.445Z,21.63
2019-03-19T07:05:03.270Z,13.93
2019-03-19T07:05:39.134Z,10.87
2019-03-19T07:06:15.033Z,9.73
2019-03-19T07:06:50.976Z,10.83
2019-03-19T07:07:26.956Z,20.33
2019-03-19T07:08:02.908Z,9.90
2019-03-19T07:08:38.772Z,10.60
2019-03-19T07:09:14.805Z,10.83
2019-03-19T07:09:50.598Z,11.03
2019-03-19T07:10:26.507Z,13.27
2019-03-19T07:11:02.437Z,14.10
2019-03-19T07:11:38.251Z,16.10
2019-03-19T07:12:14.115Z,18.07
2019-03-19T07:12:49.973Z,17.47
2019-03-19T07:13:25.974Z,12.00
2019-03-19T07:14:01.836Z,11.90
2019-03-19T07:14:37.651Z,12.40
2019-03-19T07:15:14.820Z,10.87
2019-03-19T07:15:50.825Z,10.90
2019-03-19T07:16:26.693Z,11.70
2019-03-19T07:17:02.686Z,15.50
2019-03-19T07:17:38.576Z,14.47
2019-03-19T07:18:14.458Z,12.37
2019-03-19T07:18:50.368Z,12.40
2019-03-19T07:19:26.306Z,10.10
2019-03-19T07:20:02.275Z,10.93
2019-03-19T07:20:38.330Z,12.83
2019-03-19T07:21:14.334Z,15.40
2019-03-19T07:21:50.202Z,15.23
2019-03-19T07:22:26.267Z,10.27
2019-03-19T07:23:02.275Z,9.43
2019-03-19T07:23:38.273Z,18.40
2019-03-19T07:24:14.146Z,11.63
2019-03-19T07:24:49.977Z,12.80
2019-03-19T07:25:26.049Z,15.60
2019-03-19T07:26:02.079Z,11.00
2019-03-19T07:26:38.045Z,9.53
2019-03-19T07:27:13.952Z,14.13
2019-03-19T07:27:49.928Z,11.70
2019-03-19T07:28:25.951Z,10.83
2019-03-19T07:29:01.804Z,11.83
2019-03-19T07:29:38.242Z,12.80
2019-03-19T07:30:16.021Z,9.43
2019-03-19T07:30:51.987Z,12.10
2019-03-19T07:31:31.154Z,20.63
2019-03-19T07:32:05.670Z,14.13
2019-03-19T07:32:41.528Z,10.00
2019-03-19T07:33:17.597Z,10.63
2019-03-19T07:33:53.612Z,12.40
2019-03-19T07:34:29.480Z,15.43
2019-03-19T07:35:05.351Z,13.57
2019-03-19T07:35:41.323Z,11.40
2019-03-19T07:36:17.218Z,14.67
2019-03-19T07:36:53.186Z,15.20
2019-03-19T07:37:29.180Z,9.50
2019-03-19T07:38:05.222Z,16.30
2019-03-19T07:38:41.088Z,10.30
2019-03-19T07:39:17.031Z,9.50
2019-03-19T07:39:52.888Z,11.73
2019-03-19T07:40:28.799Z,11.57
2019-03-19T07:41:04.754Z,17.27
2019-03-19T07:41:40.713Z,13.00
2019-03-19T07:42:16.706Z,11.27
2019-03-19T07:42:52.690Z,12.90
2019-03-19T07:43:28.518Z,15.63
2019-03-19T07:44:04.390Z,10.03
2019-03-19T07:44:40.300Z,13.80
2019-03-19T07:45:16.885Z,10.47